createdAt,value
2022-10-04T00:02:34.365Z,8.61
2022-10-04T00:05:12.915Z,8.60
2022-10-04T00:07:49.328Z,8.60
2022-10-04T00:10:18.673Z,8.60
2022-10-04T00:13:09.713Z,8.59
2022-10-04T00:15:53.010Z,8.60
2022-10-04T00:18:41.570Z,8.61
2022-10-04T00:21:24.532Z,8.63
2022-10-04T00:24:11.835Z,8.64
2022-10-04T00:26:46.633Z,8.66
2022-10-04T00:29:39.105Z,8.67
2022-10-04T00:32:27.887Z,8.69
2022-10-04T00:34:59.327Z,8.70
2022-10-04T00:38:06.789Z,8.72
2022-10-04T00:40:57.527Z,8.72
2022-10-04T00:43:29.510Z,8.71
2022-10-04T00:46:22.714Z,8.71
2022-10-04T00:49:09.866Z,8.72
2022-10-04T00:51:50.817Z,8.73
2022-10-04T00:54:23.848Z,8.74
2022-10-04T00:57:11.668Z,8.75
2022-10-04T00:59:51.215Z,8.76
2022-10-04T01:02:51.667Z,8.77
2022-10-04T01:05:42.941Z,8.79
2022-10-04T01:08:33.450Z,8.81
2022-10-04T01:11:24.748Z,8.81
2022-10-04T01:14:46.084Z,8.81
2022-10-04T01:17:28.608Z,8.83
2022-10-04T01:19:57.740Z,8.83
2022-10-04T01:22:50.811Z,8.85
2022-10-04T01:25:52.913Z,8.86
2022-10-04T01:28:22.761Z,8.86
2022-10-04T01:30:53.244Z,8.87
2022-10-04T01:33:36.469Z,8.84
2022-10-04T01:36:20.665Z,8.83
2022-10-04T01:38:51.612Z,8.81
2022-10-04T01:42:01.650Z,8.78
2022-10-04T01:45:05.521Z,8.75
2022-10-04T01:47:58.379Z,8.72
2022-10-04T01:50:40.076Z,8.70
2022-10-04T01:53:36.018Z,8.67
2022-10-04T01:56:24.190Z,8.66
2022-10-04T01:59:05.576Z,8.65
2022-10-04T02:01:59.837Z,8.62
2022-10-04T02:04:44.208Z,8.59
2022-10-04T02:07:32.298Z,8.56
2022-10-04T02:10:09.229Z,8.55
2022-10-04T02:12:43.613Z,8.54
2022-10-04T02:15:27.015Z,8.54
2022-10-04T02:17:58.388Z,8.53
2022-10-04T02:20:28.418Z,8.55
2022-10-04T02:23:03.285Z,8.55
2022-10-04T02:25:32.838Z,8.56
2022-10-04T02:28:02.078Z,8.57
2022-10-04T02:30:45.050Z,8.58
2022-10-04T02:33:27.934Z,8.59
2022-10-04T02:35:59.025Z,8.59
2022-10-04T02:39:03.412Z,8.61
2022-10-04T02:41:53.368Z,8.61
2022-10-04T02:45:00.489Z,8.60
2022-10-04T02:47:45.526Z,8.58
2022-10-04T02:50:31.285Z,8.54
2022-10-04T02:53:22.584Z,8.50
2022-10-04T02:55:52.297Z,8.47
2022-10-04T02:58:24.705Z,8.43
2022-10-04T03:01:00.180Z,8.40
2022-10-04T03:03:39.715Z,8.38
2022-10-04T03:06:28.614Z,8.35
2022-10-04T03:09:01.172Z,8.33
2022-10-04T03:11:35.762Z,8.31
2022-10-04T03:14:09.333Z,8.31
2022-10-04T03:16:42.656Z,8.32
2022-10-04T03:19:28.434Z,8.33
2022-10-04T03:22:03.262Z,8.34
2022-10-04T03:27:36.984Z,8.39
2022-10-04T03:30:06.985Z,8.41
2022-10-04T03:32:36.123Z,8.43
2022-10-04T03:35:08.874Z,8.45
2022-10-04T03:37:38.825Z,8.45
2022-10-04T03:40:10.772Z,8.46
2022-10-04T03:42:39.829Z,8.46
2022-10-04T03:45:15.875Z,8.47
2022-10-04T03:47:48.788Z,8.48
2022-10-04T03:50:28.506Z,8.49
2022-10-04T03:53:00.761Z,8.48
2022-10-04T03:55:36.811Z,8.46
2022-10-04T03:58:09.635Z,8.44
2022-10-04T04:00:44.604Z,8.43
2022-10-04T04:03:33.135Z,8.43
2022-10-04T04:06:19.311Z,8.42
2022-10-04T04:08:53.551Z,8.42
2022-10-04T04:11:37.256Z,8.40
2022-10-04T04:14:29.153Z,8.41
2022-10-04T04:17:37.137Z,8.40
2022-10-04T04:20:15.942Z,8.39
2022-10-04T04:22:48.751Z,8.38
2022-10-04T04:25:17.987Z,8.38
2022-10-04T04:27:49.670Z,8.36
2022-10-04T04:30:34.629Z,8.36
2022-10-04T04:33:43.330Z,8.38
2022-10-04T04:36:15.055Z,8.39
2022-10-04T04:39:03.119Z,8.42
2022-10-04T04:41:50.234Z,8.45
2022-10-04T04:44:20.768Z,8.47
2022-10-04T04:46:50.001Z,8.51
2022-10-04T04:49:19.383Z,8.57
2022-10-04T04:51:51.640Z,8.60
2022-10-04T04:54:24.125Z,8.64
2022-10-04T04:56:55.061Z,8.67
2022-10-04T04:59:26.818Z,8.69
2022-10-04T05:02:35.348Z,8.70
2022-10-04T05:05:26.765Z,8.72
2022-10-04T05:08:28.409Z,8.74
2022-10-04T05:11:10.223Z,8.77
2022-10-04T05:14:06.058Z,8.80
2022-10-04T05:16:56.109Z,8.83
2022-10-04T05:19:40.466Z,8.85
2022-10-04T05:22:15.243Z,8.86
2022-10-04T05:24:48.321Z,8.89
2022-10-04T05:27:32.508Z,8.90
2022-10-04T05:30:11.045Z,8.92
2022-10-04T05:33:01.860Z,8.93
2022-10-04T05:35:48.589Z,8.94
2022-10-04T05:39:03.025Z,8.93
2022-10-04T05:41:50.419Z,8.93
2022-10-04T05:44:56.079Z,8.92
2022-10-04T05:47:30.855Z,8.93
2022-10-04T05:50:28.512Z,8.94
2022-10-04T05:53:22.932Z,8.96
2022-10-04T05:56:11.918Z,8.98
2022-10-04T05:59:16.028Z,9.01
2022-10-04T06:02:40.657Z,9.06
2022-10-04T06:05:49.131Z,9.09
2022-10-04T06:08:26.695Z,9.11
2022-10-04T06:11:18.763Z,9.14
2022-10-04T06:14:16.247Z,9.17
2022-10-04T06:17:18.638Z,9.20
2022-10-04T06:20:06.149Z,9.22
2022-10-04T06:22:55.142Z,9.23
2022-10-04T06:25:47.505Z,9.26
2022-10-04T06:28:47.526Z,9.29
2022-10-04T06:31:24.548Z,9.32
2022-10-04T06:34:05.488Z,9.34
2022-10-04T06:37:10.065Z,9.38
2022-10-04T06:40:30.145Z,9.41
2022-10-04T06:43:37.929Z,9.41
2022-10-04T06:46:25.526Z,9.43
2022-10-04T06:49:13.957Z,9.45
2022-10-04T06:51:52.103Z,9.50
2022-10-04T06:54:46.107Z,9.58
2022-10-04T06:57:42.507Z,9.63
2022-10-04T07:00:35.366Z,9.67
2022-10-04T07:03:24.747Z,9.72
2022-10-04T07:06:05.267Z,9.76
2022-10-04T07:08:56.692Z,9.79
2022-10-04T07:12:03.252Z,9.81
2022-10-04T07:14:50.316Z,9.86
2022-10-04T07:17:27.904Z,9.91
2022-10-04T07:20:40.103Z,9.96
2022-10-04T07:23:29.033Z,10.04
2022-10-04T07:26:07.032Z,10.10
2022-10-04T07:29:02.304Z,10.11
2022-10-04T07:31:46.965Z,10.17
2022-10-04T07:34:32.168Z,10.18
2022-10-04T07:37:16.582Z,10.16
2022-10-04T07:40:10.102Z,10.17
2022-10-04T07:42:49.263Z,10.14
2022-10-04T07:45:29.139Z,10.13
2022-10-04T07:48:25.072Z,10.13
2022-10-04T07:51:25.056Z,10.14
2022-10-04T07:54:17.461Z,10.19
2022-10-04T07:56:55.815Z,10.24
2022-10-04T07:59:48.637Z,10.25
2022-10-04T08:02:59.054Z,10.27
2022-10-04T08:05:50.255Z,10.33
2022-10-04T08:08:40.825Z,10.36
2022-10-04T08:12:05.646Z,10.39
2022-10-04T08:14:54.585Z,10.44
2022-10-04T08:17:33.455Z,10.50
2022-10-04T08:20:28.747Z,10.54
2022-10-04T08:23:07.133Z,10.60
2022-10-04T08:26:26.371Z,10.68
2022-10-04T08:29:33.568Z,10.73
2022-10-04T08:32:50.369Z,10.72
2022-10-04T08:35:39.989Z,10.69
2022-10-04T08:38:45.308Z,10.69
2022-10-04T08:42:05.322Z,10.74
2022-10-04T08:45:38.510Z,10.80
2022-10-04T08:48:46.499Z,10.91
2022-10-04T08:51:24.395Z,11.00
2022-10-04T08:54:32.629Z,11.04
2022-10-04T08:57:39.304Z,11.07
2022-10-04T09:00:21.262Z,11.15
2022-10-04T09:03:28.637Z,11.24
2022-10-04T09:06:18.598Z,11.41
2022-10-04T09:09:06.766Z,11.45
2022-10-04T09:12:08.092Z,11.41
2022-10-04T09:15:20.909Z,11.46
2022-10-04T09:18:12.646Z,11.55
2022-10-04T09:21:19.101Z,11.65
2022-10-04T09:24:19.266Z,11.66
2022-10-04T09:27:43.263Z,11.62
2022-10-04T09:30:20.979Z,11.56
2022-10-04T09:33:16.079Z,11.62
2022-10-04T09:36:25.312Z,11.74
2022-10-04T09:39:35.573Z,11.89
2022-10-04T09:42:26.838Z,12.08
2022-10-04T09:45:31.126Z,12.15
2022-10-04T09:48:06.148Z,12.10
2022-10-04T09:51:03.627Z,12.13
2022-10-04T09:54:28.386Z,12.23
2022-10-04T09:57:22.176Z,12.36
2022-10-04T10:00:27.000Z,12.39
2022-10-04T10:03:05.973Z,12.39
2022-10-04T10:06:19.774Z,12.42
2022-10-04T10:09:02.924Z,12.39
2022-10-04T10:12:36.445Z,12.36
2022-10-04T10:15:14.934Z,12.30
2022-10-04T10:18:10.847Z,12.39
2022-10-04T10:21:10.719Z,12.50
2022-10-04T10:23:47.437Z,12.58
2022-10-04T10:26:46.368Z,12.52
2022-10-04T10:29:44.394Z,12.47
2022-10-04T10:32:40.479Z,12.41
2022-10-04T10:35:44.229Z,12.28
2022-10-04T10:38:57.933Z,12.17
2022-10-04T10:42:07.657Z,12.13
2022-10-04T10:45:09.463Z,12.13
2022-10-04T10:47:59.897Z,12.07
2022-10-04T10:51:00.014Z,11.98
2022-10-04T10:53:50.577Z,12.06
2022-10-04T10:56:36.611Z,12.19
2022-10-04T10:59:55.715Z,12.19
2022-10-04T11:03:13.126Z,12.15
2022-10-04T11:06:07.754Z,12.11
2022-10-04T11:09:04.935Z,12.15
2022-10-04T11:11:34.185Z,12.30
2022-10-04T11:14:43.815Z,12.49
2022-10-04T11:17:50.438Z,12.66
2022-10-04T11:20:34.279Z,12.86
2022-10-04T11:23:03.117Z,13.01
2022-10-04T11:26:24.053Z,13.14
2022-10-04T11:29:32.570Z,13.29
2022-10-04T11:32:53.075Z,13.28
2022-10-04T11:35:30.852Z,13.23
2022-10-04T11:38:27.657Z,13.14
2022-10-04T11:41:07.610Z,13.06
2022-10-04T11:44:06.331Z,12.99
2022-10-04T11:46:57.990Z,12.94
2022-10-04T11:49:53.029Z,12.90
2022-10-04T11:52:54.432Z,12.86
2022-10-04T11:55:54.335Z,12.81
2022-10-04T11:58:59.238Z,12.76
2022-10-04T12:01:50.028Z,12.77
2022-10-04T12:05:02.192Z,12.81
2022-10-04T12:08:02.049Z,12.94
2022-10-04T12:11:03.686Z,13.03
2022-10-04T12:13:57.826Z,13.08
2022-10-04T12:17:07.300Z,13.11
2022-10-04T12:19:51.609Z,13.11
2022-10-04T12:23:11.712Z,13.08
2022-10-04T12:25:48.358Z,12.99
2022-10-04T12:28:45.113Z,12.95
2022-10-04T12:31:34.836Z,12.93
2022-10-04T12:34:15.944Z,12.93
2022-10-04T12:37:20.980Z,13.02
2022-10-04T12:40:19.959Z,13.12
2022-10-04T12:43:06.424Z,13.21
2022-10-04T12:45:57.315Z,13.33
2022-10-04T12:48:49.771Z,13.41
2022-10-04T12:51:34.895Z,13.46
2022-10-04T12:54:34.325Z,13.40
2022-10-04T12:57:23.826Z,13.29
2022-10-04T13:00:15.295Z,13.20
2022-10-04T13:03:02.692Z,13.17
2022-10-04T13:05:41.787Z,13.26
2022-10-04T13:08:48.430Z,13.44
2022-10-04T13:11:51.745Z,13.56
2022-10-04T13:14:31.728Z,13.55
2022-10-04T13:17:28.359Z,13.52
2022-10-04T13:20:26.544Z,13.42
2022-10-04T13:22:58.405Z,13.32
2022-10-04T13:25:54.312Z,13.31
2022-10-04T13:28:49.673Z,13.25
2022-10-04T13:31:25.240Z,13.20
2022-10-04T13:34:25.006Z,13.12
2022-10-04T13:37:36.061Z,13.03
2022-10-04T13:40:43.713Z,12.94
2022-10-04T13:43:37.392Z,12.85
2022-10-04T13:46:26.687Z,12.80
2022-10-04T13:49:00.975Z,12.77
2022-10-04T13:51:36.165Z,12.84
2022-10-04T13:54:31.765Z,13.02
2022-10-04T13:57:24.790Z,13.21
2022-10-04T14:00:09.501Z,13.39
2022-10-04T14:03:17.064Z,13.53
2022-10-04T14:06:09.697Z,13.69
2022-10-04T14:09:33.987Z,13.84
2022-10-04T14:12:19.921Z,13.98
2022-10-04T14:15:14.709Z,14.10
2022-10-04T14:17:51.154Z,14.22
2022-10-04T14:21:00.029Z,14.30
2022-10-04T14:23:52.609Z,14.40
2022-10-04T14:27:00.237Z,14.47
2022-10-04T14:30:15.120Z,14.57
2022-10-04T14:32:48.380Z,14.58
2022-10-04T14:35:35.798Z,14.59
2022-10-04T14:38:30.462Z,14.60
2022-10-04T14:41:02.119Z,14.62
2022-10-04T14:44:10.711Z,14.59
2022-10-04T14:46:56.232Z,14.54
2022-10-04T14:49:38.852Z,14.50
2022-10-04T14:52:47.740Z,14.47
2022-10-04T14:55:39.874Z,14.39
2022-10-04T14:58:34.338Z,14.31
2022-10-04T15:01:21.613Z,14.19
2022-10-04T15:04:13.495Z,14.13
2022-10-04T15:06:56.269Z,14.08
2022-10-04T15:10:09.875Z,14.04
2022-10-04T15:13:16.844Z,13.94
2022-10-04T15:16:10.123Z,13.87
2022-10-04T15:18:52.735Z,13.76
2022-10-04T15:21:53.201Z,13.66
2022-10-04T15:24:54.800Z,13.60
2022-10-04T15:27:47.606Z,13.56
2022-10-04T15:30:34.065Z,13.52
2022-10-04T15:33:18.304Z,13.48
2022-10-04T15:36:02.697Z,13.42
2022-10-04T15:39:01.891Z,13.39
2022-10-04T15:41:43.071Z,13.34
2022-10-04T15:44:32.157Z,13.31
2022-10-04T15:47:07.589Z,13.25
2022-10-04T15:50:23.762Z,13.19
2022-10-04T15:53:19.760Z,13.11
2022-10-04T15:56:14.080Z,13.02
2022-10-04T15:58:56.226Z,12.94
2022-10-04T16:02:16.452Z,12.83
2022-10-04T16:05:15.041Z,12.71
2022-10-04T16:08:02.696Z,12.59
2022-10-04T16:10:52.610Z,12.47
2022-10-04T16:13:59.988Z,12.37
2022-10-04T16:17:02.372Z,12.29
2022-10-04T16:19:59.398Z,12.23
2022-10-04T16:23:21.344Z,12.16
2022-10-04T16:25:51.785Z,12.08
2022-10-04T16:28:59.934Z,12.01
2022-10-04T16:31:53.508Z,11.93
2022-10-04T16:34:48.748Z,11.85
2022-10-04T16:37:26.181Z,11.77
2022-10-04T16:40:19.751Z,11.69
2022-10-04T16:42:56.583Z,11.63
2022-10-04T16:46:01.376Z,11.57
2022-10-04T16:48:58.223Z,11.49
2022-10-04T16:52:03.094Z,11.41
2022-10-04T16:55:01.729Z,11.30
2022-10-04T16:57:31.063Z,11.18
2022-10-04T17:00:20.883Z,11.07
2022-10-04T17:03:29.271Z,10.95
2022-10-04T17:06:24.393Z,10.86
2022-10-04T17:09:23.962Z,10.79
2022-10-04T17:12:11.299Z,10.71
2022-10-04T17:14:39.764Z,10.63
2022-10-04T17:17:47.074Z,10.56
2022-10-04T17:20:27.121Z,10.48
2022-10-04T17:23:32.463Z,10.43
2022-10-04T17:26:38.674Z,10.37
2022-10-04T17:29:26.030Z,10.31
2022-10-04T17:32:17.012Z,10.23
2022-10-04T17:35:27.295Z,10.17
2022-10-04T17:38:09.191Z,10.12
2022-10-04T17:41:16.343Z,10.06
2022-10-04T17:44:23.597Z,10.00
2022-10-04T17:47:23.626Z,9.93
2022-10-04T17:50:29.286Z,9.87
2022-10-04T17:53:42.494Z,9.81
2022-10-04T17:56:14.207Z,9.77
2022-10-04T17:58:55.901Z,9.75
2022-10-04T18:01:36.786Z,9.72
2022-10-04T18:04:30.656Z,9.71
2022-10-04T18:07:32.410Z,9.71
2022-10-04T18:10:38.789Z,9.69
2022-10-04T18:13:25.836Z,9.62
2022-10-04T18:16:11.277Z,9.54
2022-10-04T18:18:42.171Z,9.47
2022-10-04T18:21:31.694Z,9.43
2022-10-04T18:24:17.188Z,9.35
2022-10-04T18:27:24.295Z,9.32
2022-10-04T18:30:00.685Z,9.27
2022-10-04T18:32:29.635Z,9.23
2022-10-04T18:35:18.465Z,9.19
2022-10-04T18:38:27.995Z,9.15
2022-10-04T18:41:23.882Z,9.11
2022-10-04T18:44:15.615Z,9.06
2022-10-04T18:47:00.653Z,9.01
2022-10-04T18:49:33.657Z,8.96
2022-10-04T18:52:22.893Z,8.92
2022-10-04T18:54:51.497Z,8.90
2022-10-04T18:58:01.108Z,8.87
2022-10-04T19:01:12.067Z,8.80
2022-10-04T19:04:00.370Z,8.74
2022-10-04T19:06:37.263Z,8.68
2022-10-04T19:09:16.078Z,8.61
2022-10-04T19:12:11.590Z,8.56
2022-10-04T19:15:29.171Z,8.53
2022-10-04T19:18:28.330Z,8.51
2022-10-04T19:21:33.019Z,8.49
2022-10-04T19:24:26.454Z,8.45
2022-10-04T19:27:19.713Z,8.40
2022-10-04T19:30:12.646Z,8.36
2022-10-04T19:33:31.302Z,8.34
2022-10-04T19:36:15.280Z,8.31
2022-10-04T19:38:57.413Z,8.28
2022-10-04T19:41:55.763Z,8.26
2022-10-04T19:44:31.806Z,8.25
2022-10-04T19:47:52.431Z,8.23
2022-10-04T19:50:47.054Z,8.19
2022-10-04T19:53:41.608Z,8.15
2022-10-04T19:56:24.135Z,8.11
2022-10-04T19:59:12.882Z,8.07
2022-10-04T20:01:41.646Z,8.06
2022-10-04T20:04:36.884Z,8.05
2022-10-04T20:07:24.325Z,8.04
2022-10-04T20:10:30.950Z,8.04
2022-10-04T20:13:25.935Z,8.01
2022-10-04T20:16:00.729Z,7.99
2022-10-04T20:18:32.709Z,7.97
2022-10-04T20:21:01.658Z,7.96
2022-10-04T20:23:47.999Z,7.95
2022-10-04T20:26:43.304Z,7.96
2022-10-04T20:29:38.710Z,7.97
2022-10-04T20:32:27.460Z,7.98
2022-10-04T20:35:00.584Z,8.00
2022-10-04T20:38:13.516Z,8.00
2022-10-04T20:40:45.509Z,8.02
2022-10-04T20:43:28.348Z,8.04
2022-10-04T20:46:23.381Z,8.09
2022-10-04T20:48:54.889Z,8.13
2022-10-04T20:51:37.521Z,8.14
2022-10-04T20:54:09.297Z,8.17
2022-10-04T20:56:39.349Z,8.22
2022-10-04T20:59:22.447Z,8.26
2022-10-04T21:02:06.916Z,8.30
2022-10-04T21:04:43.210Z,8.34
2022-10-04T21:10:18.479Z,8.38
2022-10-04T21:12:49.534Z,8.40
2022-10-04T21:15:31.922Z,8.40
2022-10-04T21:18:04.052Z,8.40
2022-10-04T21:20:52.228Z,8.39
2022-10-04T21:23:30.593Z,8.36
2022-10-04T21:26:22.394Z,8.36
2022-10-04T21:28:57.337Z,8.34
2022-10-04T21:31:39.936Z,8.34
2022-10-04T21:34:48.249Z,8.33
2022-10-04T21:37:11.161Z,8.34
2022-10-04T21:39:39.914Z,8.34
2022-10-04T21:42:22.698Z,8.34
2022-10-04T21:44:51.757Z,8.34
2022-10-04T21:47:23.294Z,8.36
2022-10-04T21:49:52.649Z,8.37
2022-10-04T21:52:34.994Z,8.38
2022-10-04T21:55:17.696Z,8.38
2022-10-04T21:58:00.100Z,8.39
2022-10-04T22:00:29.261Z,8.41
2022-10-04T22:03:11.762Z,8.42
2022-10-04T22:05:40.914Z,8.42
2022-10-04T22:08:09.894Z,8.42
2022-10-04T22:10:40.186Z,8.41
2022-10-04T22:13:09.375Z,8.41
2022-10-04T22:15:51.716Z,8.41
2022-10-04T22:18:34.425Z,8.41
2022-10-04T22:21:03.652Z,8.41
2022-10-04T22:23:39.059Z,8.42
2022-10-04T22:26:23.605Z,8.42
2022-10-04T22:28:55.275Z,8.43
2022-10-04T22:31:29.351Z,8.43
2022-10-04T22:34:21.118Z,8.41
2022-10-04T22:36:52.251Z,8.38
2022-10-04T22:39:21.706Z,8.36
2022-10-04T22:42:00.860Z,8.34
2022-10-04T22:44:35.745Z,8.32
2022-10-04T22:47:10.584Z,8.31
2022-10-04T22:49:44.454Z,8.31
2022-10-04T22:52:20.379Z,8.30
2022-10-04T22:55:03.294Z,8.29
2022-10-04T22:57:46.442Z,8.27
2022-10-04T23:00:15.759Z,8.25
2022-10-04T23:02:44.806Z,8.24
2022-10-04T23:05:19.954Z,8.24
2022-10-04T23:07:49.562Z,8.23
2022-10-04T23:10:20.094Z,8.23
2022-10-04T23:12:49.843Z,8.23
2022-10-04T23:15:32.474Z,8.25
2022-10-04T23:18:01.176Z,8.27
2022-10-04T23:20:45.151Z,8.29
2022-10-04T23:23:18.564Z,8.31
2022-10-04T23:26:00.909Z,8.31
2022-10-04T23:28:43.343Z,8.29
2022-10-04T23:31:18.972Z,8.29
2022-10-04T23:33:47.756Z,8.28
2022-10-04T23:36:30.897Z,8.27
2022-10-04T23:39:01.676Z,8.28
2022-10-04T23:41:44.435Z,8.28
2022-10-04T23:44:34.948Z,8.28
2022-10-04T23:47:21.981Z,8.30
2022-10-04T23:49:53.802Z,8.30
2022-10-04T23:52:35.369Z,8.28
2022-10-04T23:55:17.277Z,8.28
2022-10-04T23:57:47.371Z,8.28
